sensor_id;sensor_type;location;lat;lon;timestamp;pressure;altitude;pressure_sealevel;temperature;humidity
37170;BME280;23062;13.952;100.608;2023-03-15T00:01:33;1011.40;;;29.77;60.74
37170;BME280;23062;13.952;100.608;2023-03-15T00:05:59;1011.51;;;29.78;60.25
37170;BME280;23062;13.952;100.608;2023-03-15T00:10:24;1011.60;;;29.78;60.02
37170;BME280;23062;13.952;100.608;2023-03-15T00:14:52;1011.73;;;29.77;59.81
37170;BME280;23062;13.952;100.608;2023-03-15T00:19:16;1011.76;;;29.78;59.55
37170;BME280;23062;13.952;100.608;2023-03-15T00:23:41;1011.87;;;29.77;59.25
37170;BME280;23062;13.952;100.608;2023-03-15T00:28:06;1012.03;;;29.78;59.42
37170;BME280;23062;13.952;100.608;2023-03-15T00:32:38;1012.12;;;29.77;59.31
37170;BME280;23062;13.952;100.608;2023-03-15T00:37:03;1012.17;;;29.75;59.05
37170;BME280;23062;13.952;100.608;2023-03-15T00:41:31;1012.24;;;29.75;59.00
37170;BME280;23062;13.952;100.608;2023-03-15T00:45:57;1012.30;;;29.78;59.04
37170;BME280;23062;13.952;100.608;2023-03-15T00:50:25;1012.43;;;29.77;59.09
37170;BME280;23062;13.952;100.608;2023-03-15T00:54:54;1012.47;;;29.80;59.08
37170;BME280;23062;13.952;100.608;2023-03-15T00:59:21;1012.54;;;29.82;59.14
37170;BME280;23062;13.952;100.608;2023-03-15T01:03:47;1012.55;;;29.83;59.15
37170;BME280;23062;13.952;100.608;2023-03-15T01:08:13;1012.57;;;29.78;59.18
37170;BME280;23062;13.952;100.608;2023-03-15T01:12:38;1012.63;;;29.66;59.40
37170;BME280;23062;13.952;100.608;2023-03-15T01:17:06;1012.72;;;29.66;59.52
37170;BME280;23062;13.952;100.608;2023-03-15T01:21:31;1012.75;;;29.72;59.41
37170;BME280;23062;13.952;100.608;2023-03-15T01:26:01;1012.77;;;29.80;59.47
37170;BME280;23062;13.952;100.608;2023-03-15T01:30:28;1012.78;;;29.83;59.22
37170;BME280;23062;13.952;100.608;2023-03-15T01:34:54;1012.79;;;29.87;59.12
37170;BME280;23062;13.952;100.608;2023-03-15T01:39:19;1012.79;;;29.90;58.90
37170;BME280;23062;13.952;100.608;2023-03-15T01:43:44;1012.85;;;29.94;58.58
37170;BME280;23062;13.952;100.608;2023-03-15T01:48:13;1012.84;;;29.99;58.37
37170;BME280;23062;13.952;100.608;2023-03-15T01:52:39;1012.86;;;30.00;58.34
37170;BME280;23062;13.952;100.608;2023-03-15T02:01:37;1012.86;;;30.05;58.13
37170;BME280;23062;13.952;100.608;2023-03-15T02:06:06;1012.95;;;30.07;58.14
37170;BME280;23062;13.952;100.608;2023-03-15T02:10:39;1013.02;;;30.10;58.10
37170;BME280;23062;13.952;100.608;2023-03-15T02:15:04;1013.05;;;30.13;58.18
37170;BME280;23062;13.952;100.608;2023-03-15T02:19:41;1013.11;;;30.16;58.14
37170;BME280;23062;13.952;100.608;2023-03-15T02:28:39;1013.11;;;30.22;58.11
37170;BME280;23062;13.952;100.608;2023-03-15T02:37:49;1013.12;;;30.26;58.06
37170;BME280;23062;13.952;100.608;2023-03-15T02:42:20;1013.10;;;30.27;57.95
37170;BME280;23062;13.952;100.608;2023-03-15T02:46:51;1013.08;;;30.31;57.80
37170;BME280;23062;13.952;100.608;2023-03-15T02:51:23;1013.04;;;30.34;57.55
37170;BME280;23062;13.952;100.608;2023-03-15T02:55:45;1013.02;;;30.35;57.29
37170;BME280;23062;13.952;100.608;2023-03-15T03:00:12;1013.03;;;30.38;56.83
37170;BME280;23062;13.952;100.608;2023-03-15T03:04:38;1013.02;;;30.39;56.83
37170;BME280;23062;13.952;100.608;2023-03-15T03:09:04;1013.01;;;30.42;56.79
37170;BME280;23062;13.952;100.608;2023-03-15T03:13:31;1012.89;;;30.44;56.69
37170;BME280;23062;13.952;100.608;2023-03-15T03:18:00;1012.88;;;30.45;56.74
37170;BME280;23062;13.952;100.608;2023-03-15T03:22:24;1012.79;;;30.46;56.70
37170;BME280;23062;13.952;100.608;2023-03-15T03:26:49;1012.75;;;30.51;56.67
37170;BME280;23062;13.952;100.608;2023-03-15T03:31:22;1012.68;;;30.51;56.70
37170;BME280;23062;13.952;100.608;2023-03-15T03:35:52;1012.54;;;30.51;56.58
37170;BME280;23062;13.952;100.608;2023-03-15T03:40:17;1012.52;;;30.53;56.08
37170;BME280;23062;13.952;100.608;2023-03-15T03:44:41;1012.49;;;30.58;55.96
37170;BME280;23062;13.952;100.608;2023-03-15T03:49:06;1012.48;;;30.58;55.84
37170;BME280;23062;13.952;100.608;2023-03-15T03:53:31;1012.47;;;30.63;55.17
37170;BME280;23062;13.952;100.608;2023-03-15T03:57:56;1012.37;;;30.66;55.22
37170;BME280;23062;13.952;100.608;2023-03-15T04:02:21;1012.24;;;30.65;54.91
37170;BME280;23062;13.952;100.608;2023-03-15T04:06:46;1012.17;;;30.65;54.93
37170;BME280;23062;13.952;100.608;2023-03-15T04:11:11;1012.10;;;30.72;55.03
37170;BME280;23062;13.952;100.608;2023-03-15T04:15:38;1012.10;;;30.72;55.09
37170;BME280;23062;13.952;100.608;2023-03-15T04:20:03;1012.02;;;30.91;52.64
37170;BME280;23062;13.952;100.608;2023-03-15T04:24:36;1011.96;;;31.07;50.73
37170;BME280;23062;13.952;100.608;2023-03-15T04:29:04;1011.97;;;31.08;51.22
37170;BME280;23062;13.952;100.608;2023-03-15T04:33:29;1011.83;;;31.04;52.12
37170;BME280;23062;13.952;100.608;2023-03-15T04:37:55;1011.80;;;31.13;51.43
37170;BME280;23062;13.952;100.608;2023-03-15T04:42:20;1011.72;;;31.16;50.91
37170;BME280;23062;13.952;100.608;2023-03-15T04:46:45;1011.58;;;31.02;51.89
37170;BME280;23062;13.952;100.608;2023-03-15T04:51:11;1011.52;;;31.08;51.57
37170;BME280;23062;13.952;100.608;2023-03-15T04:55:36;1011.41;;;31.07;51.52
37170;BME280;23062;13.952;100.608;2023-03-15T05:00:00;1011.35;;;31.13;51.32
37170;BME280;23062;13.952;100.608;2023-03-15T05:04:26;1011.23;;;31.22;51.03
37170;BME280;23062;13.952;100.608;2023-03-15T05:08:51;1011.16;;;31.17;51.20
37170;BME280;23062;13.952;100.608;2023-03-15T05:13:17;1011.02;;;31.08;51.70
37170;BME280;23062;13.952;100.608;2023-03-15T05:17:43;1010.96;;;31.13;51.66
37170;BME280;23062;13.952;100.608;2023-03-15T05:22:09;1010.87;;;31.14;51.76
37170;BME280;23062;13.952;100.608;2023-03-15T05:26:37;1010.72;;;31.23;51.25
37170;BME280;23062;13.952;100.608;2023-03-15T05:31:02;1010.72;;;31.32;50.61
37170;BME280;23062;13.952;100.608;2023-03-15T05:35:27;1010.68;;;31.42;48.91
37170;BME280;23062;13.952;100.608;2023-03-15T05:39:52;1010.55;;;31.44;48.57
37170;BME280;23062;13.952;100.608;2023-03-15T05:44:16;1010.47;;;31.42;48.44
37170;BME280;23062;13.952;100.608;2023-03-15T05:48:41;1010.36;;;31.45;48.45
37170;BME280;23062;13.952;100.608;2023-03-15T05:53:10;1010.29;;;31.41;48.54
37170;BME280;23062;13.952;100.608;2023-03-15T05:57:35;1010.24;;;31.47;46.97
37170;BME280;23062;13.952;100.608;2023-03-15T06:02:00;1010.20;;;31.44;46.82
37170;BME280;23062;13.952;100.608;2023-03-15T06:06:32;1010.18;;;31.50;46.58
37170;BME280;23062;13.952;100.608;2023-03-15T06:10:57;1010.04;;;31.52;46.48
37170;BME280;23062;13.952;100.608;2023-03-15T06:15:22;1009.99;;;31.58;46.58
37170;BME280;23062;13.952;100.608;2023-03-15T06:19:46;1009.99;;;31.63;46.12
37170;BME280;23062;13.952;100.608;2023-03-15T06:24:11;1009.95;;;31.55;46.61
37170;BME280;23062;13.952;100.608;2023-03-15T06:28:44;1009.89;;;31.55;47.16
37170;BME280;23062;13.952;100.608;2023-03-15T06:33:09;1009.82;;;31.52;47.49
37170;BME280;23062;13.952;100.608;2023-03-15T06:37:33;1009.74;;;31.48;47.73
37170;BME280;23062;13.952;100.608;2023-03-15T06:42:01;1009.70;;;31.47;47.93
37170;BME280;23062;13.952;100.608;2023-03-15T06:46:26;1009.60;;;31.47;48.02
37170;BME280;23062;13.952;100.608;2023-03-15T06:50:51;1009.60;;;31.45;48.06
37170;BME280;23062;13.952;100.608;2023-03-15T06:55:16;1009.52;;;31.43;48.29
37170;BME280;23062;13.952;100.608;2023-03-15T06:59:41;1009.45;;;31.41;48.33
37170;BME280;23062;13.952;100.608;2023-03-15T07:04:06;1009.34;;;31.38;48.02
37170;BME280;23062;13.952;100.608;2023-03-15T07:08:30;1009.28;;;31.38;48.46
37170;BME280;23062;13.952;100.608;2023-03-15T07:12:56;1009.19;;;31.41;48.84
37170;BME280;23062;13.952;100.608;2023-03-15T07:17:24;1009.14;;;31.44;49.06
37170;BME280;23062;13.952;100.608;2023-03-15T07:21:55;1009.06;;;31.52;49.12
37170;BME280;23062;13.952;100.608;2023-03-15T07:26:24;1009.02;;;31.55;49.25
37170;BME280;23062;13.952;100.608;2023-03-15T07:30:56;1008.98;;;31.54;49.35
37170;BME280;23062;13.952;100.608;2023-03-15T07:35:26;1008.88;;;31.52;49.30
37170;BME280;23062;13.952;100.608;2023-03-15T07:39:51;1008.86;;;31.52;49.02
37170;BME280;23062;13.952;100.608;2023-03-15T07:44:16;1008.79;;;31.53;48.90
37170;BME280;23062;13.952;100.608;2023-03-15T07:48:41;1008.71;;;31.58;48.46
37170;BME280;23062;13.952;100.608;2023-03-15T07:53:07;1008.69;;;31.64;47.81
37170;BME280;23062;13.952;100.608;2023-03-15T07:57:35;1008.64;;;31.70;47.30
37170;BME280;23062;13.952;100.608;2023-03-15T08:02:00;1008.60;;;31.63;47.56
37170;BME280;23062;13.952;100.608;2023-03-15T08:06:24;1008.51;;;31.57;47.97
37170;BME280;23062;13.952;100.608;2023-03-15T08:10:49;1008.52;;;31.59;47.90
37170;BME280;23062;13.952;100.608;2023-03-15T08:15:16;1008.37;;;31.59;47.57
37170;BME280;23062;13.952;100.608;2023-03-15T08:19:43;1008.38;;;31.60;47.34
37170;BME280;23062;13.952;100.608;2023-03-15T08:24:07;1008.44;;;31.70;46.28
37170;BME280;23062;13.952;100.608;2023-03-15T08:28:35;1008.39;;;31.65;46.54
37170;BME280;23062;13.952;100.608;2023-03-15T08:33:03;1008.35;;;31.66;45.80
37170;BME280;23062;13.952;100.608;2023-03-15T08:37:35;1008.34;;;31.67;45.68
37170;BME280;23062;13.952;100.608;2023-03-15T08:42:07;1008.36;;;31.63;45.76
37170;BME280;23062;13.952;100.608;2023-03-15T08:46:31;1008.28;;;31.64;45.84
37170;BME280;23062;13.952;100.608;2023-03-15T08:51:06;1008.26;;;31.61;46.03
37170;BME280;23062;13.952;100.608;2023-03-15T08:55:38;1008.29;;;31.58;46.40
37170;BME280;23062;13.952;100.608;2023-03-15T09:00:04;1008.28;;;31.59;46.24
37170;BME280;23062;13.952;100.608;2023-03-15T09:04:39;1008.30;;;31.66;45.50
37170;BME280;23062;13.952;100.608;2023-03-15T09:09:06;1008.35;;;31.66;45.37
37170;BME280;23062;13.952;100.608;2023-03-15T09:13:30;1008.27;;;31.59;45.79
37170;BME280;23062;13.952;100.608;2023-03-15T09:17:55;1008.32;;;31.58;45.92
37170;BME280;23062;13.952;100.608;2023-03-15T09:22:19;1008.36;;;31.58;46.14
37170;BME280;23062;13.952;100.608;2023-03-15T09:26:44;1008.40;;;31.53;46.68
37170;BME280;23062;13.952;100.608;2023-03-15T09:31:12;1008.36;;;31.51;47.20
37170;BME280;23062;13.952;100.608;2023-03-15T09:35:37;1008.30;;;31.50;47.78
37170;BME280;23062;13.952;100.608;2023-03-15T09:40:02;1008.41;;;31.51;48.59
37170;BME280;23062;13.952;100.608;2023-03-15T09:44:50;1008.44;;;31.53;49.10
37170;BME280;23062;13.952;100.608;2023-03-15T09:49:28;1008.46;;;31.53;49.44
37170;BME280;23062;13.952;100.608;2023-03-15T09:53:57;1008.52;;;31.56;49.78
37170;BME280;23062;13.952;100.608;2023-03-15T09:58:23;1008.50;;;31.53;50.00
37170;BME280;23062;13.952;100.608;2023-03-15T10:02:55;1008.59;;;31.53;50.21
37170;BME280;23062;13.952;100.608;2023-03-15T10:07:32;1008.59;;;31.50;50.36
37170;BME280;23062;13.952;100.608;2023-03-15T10:16:43;1008.67;;;31.52;50.80
37170;BME280;23062;13.952;100.608;2023-03-15T10:21:15;1008.71;;;31.49;50.80
37170;BME280;23062;13.952;100.608;2023-03-15T10:25:44;1008.80;;;31.50;51.03
37170;BME280;23062;13.952;100.608;2023-03-15T10:34:50;1008.81;;;31.44;51.39
37170;BME280;23062;13.952;100.608;2023-03-15T10:39:14;1008.92;;;31.45;51.54
37170;BME280;23062;13.952;100.608;2023-03-15T10:43:39;1008.96;;;31.45;51.83
37170;BME280;23062;13.952;100.608;2023-03-15T10:48:07;1008.99;;;31.46;52.03
37170;BME280;23062;13.952;100.608;2023-03-15T10:52:33;1009.10;;;31.49;51.97
37170;BME280;23062;13.952;100.608;2023-03-15T10:57:03;1009.09;;;31.47;51.93
37170;BME280;23062;13.952;100.608;2023-03-15T11:01:31;1009.11;;;31.45;51.95
37170;BME280;23062;13.952;100.608;2023-03-15T11:05:59;1009.17;;;31.45;51.95
37170;BME280;23062;13.952;100.608;2023-03-15T11:10:27;1009.25;;;31.45;51.86
37170;BME280;23062;13.952;100.608;2023-03-15T11:14:58;1009.27;;;31.42;51.86
37170;BME280;23062;13.952;100.608;2023-03-15T11:19:28;1009.36;;;31.44;51.71
37170;BME280;23062;13.952;100.608;2023-03-15T11:23:54;1009.37;;;31.41;51.68
37170;BME280;23062;13.952;100.608;2023-03-15T11:28:23;1009.40;;;31.37;51.72
37170;BME280;23062;13.952;100.608;2023-03-15T11:32:48;1009.42;;;31.34;51.85
37170;BME280;23062;13.952;100.608;2023-03-15T11:37:16;1009.39;;;31.34;51.89
37170;BME280;23062;13.952;100.608;2023-03-15T11:41:50;1009.44;;;31.34;51.94
37170;BME280;23062;13.952;100.608;2023-03-15T11:46:23;1009.51;;;31.34;51.95
37170;BME280;23062;13.952;100.608;2023-03-15T11:50:54;1009.50;;;31.33;52.01
37170;BME280;23062;13.952;100.608;2023-03-15T11:55:27;1009.67;;;31.33;51.90
37170;BME280;23062;13.952;100.608;2023-03-15T11:59:51;1009.75;;;31.32;51.98
37170;BME280;23062;13.952;100.608;2023-03-15T12:18:37;1010.10;;;31.32;52.34
37170;BME280;23062;13.952;100.608;2023-03-15T12:27:44;1010.22;;;31.33;52.51
37170;BME280;23062;13.952;100.608;2023-03-15T12:32:11;1010.31;;;31.31;52.66
37170;BME280;23062;13.952;100.608;2023-03-15T12:36:38;1010.35;;;31.34;52.66
37170;BME280;23062;13.952;100.608;2023-03-15T12:41:08;1010.41;;;31.32;52.77
37170;BME280;23062;13.952;100.608;2023-03-15T12:45:38;1010.47;;;31.31;52.91
37170;BME280;23062;13.952;100.608;2023-03-15T12:54:42;1010.61;;;31.30;53.17
37170;BME280;23062;13.952;100.608;2023-03-15T12:59:03;1010.66;;;31.30;53.15
37170;BME280;23062;13.952;100.608;2023-03-15T13:03:34;1010.70;;;31.29;53.25
37170;BME280;23062;13.952;100.608;2023-03-15T13:12:58;1010.92;;;31.31;53.34
37170;BME280;23062;13.952;100.608;2023-03-15T13:22:21;1011.13;;;31.32;53.47
37170;BME280;23062;13.952;100.608;2023-03-15T13:27:02;1011.12;;;31.41;53.19
37170;BME280;23062;13.952;100.608;2023-03-15T13:31:26;1011.18;;;31.49;52.93
37170;BME280;23062;13.952;100.608;2023-03-15T13:35:56;1011.20;;;31.50;53.16
37170;BME280;23062;13.952;100.608;2023-03-15T13:40:21;1011.30;;;31.51;53.11
37170;BME280;23062;13.952;100.608;2023-03-15T13:49:33;1011.36;;;31.49;53.29
37170;BME280;23062;13.952;100.608;2023-03-15T13:58:39;1011.45;;;31.47;53.59
37170;BME280;23062;13.952;100.608;2023-03-15T14:03:07;1011.46;;;31.47;53.68
37170;BME280;23062;13.952;100.608;2023-03-15T14:07:47;1011.54;;;31.46;54.14
37170;BME280;23062;13.952;100.608;2023-03-15T14:12:17;1011.60;;;31.47;54.36
37170;BME280;23062;13.952;100.608;2023-03-15T14:16:46;1011.67;;;31.46;54.80
37170;BME280;23062;13.952;100.608;2023-03-15T14:21:18;1011.67;;;31.45;55.08
37170;BME280;23062;13.952;100.608;2023-03-15T14:25:49;1011.69;;;31.45;55.38
37170;BME280;23062;13.952;100.608;2023-03-15T14:30:24;1011.66;;;31.43;55.36
37170;BME280;23062;13.952;100.608;2023-03-15T14:34:55;1011.76;;;31.43;55.23
37170;BME280;23062;13.952;100.608;2023-03-15T14:43:51;1011.91;;;31.38;53.96
37170;BME280;23062;13.952;100.608;2023-03-15T14:48:26;1011.95;;;31.38;54.46
37170;BME280;23062;13.952;100.608;2023-03-15T14:52:49;1011.96;;;31.39;55.06
37170;BME280;23062;13.952;100.608;2023-03-15T14:57:14;1011.97;;;31.38;55.63
37170;BME280;23062;13.952;100.608;2023-03-15T15:01:40;1011.97;;;31.37;55.81
37170;BME280;23062;13.952;100.608;2023-03-15T15:06:08;1011.93;;;31.36;56.15
37170;BME280;23062;13.952;100.608;2023-03-15T15:10:36;1012.02;;;31.36;55.88
37170;BME280;23062;13.952;100.608;2023-03-15T15:15:01;1012.09;;;31.35;56.09
37170;BME280;23062;13.952;100.608;2023-03-15T15:19:26;1012.17;;;31.35;56.04
37170;BME280;23062;13.952;100.608;2023-03-15T15:23:50;1012.21;;;31.35;56.24
37170;BME280;23062;13.952;100.608;2023-03-15T15:28:15;1012.17;;;31.34;55.88
37170;BME280;23062;13.952;100.608;2023-03-15T15:32:41;1012.20;;;31.33;56.41
37170;BME280;23062;13.952;100.608;2023-03-15T15:37:11;1012.14;;;31.32;56.43
37170;BME280;23062;13.952;100.608;2023-03-15T15:41:40;1012.20;;;31.33;56.65
37170;BME280;23062;13.952;100.608;2023-03-15T15:46:10;1012.18;;;31.31;56.51
37170;BME280;23062;13.952;100.608;2023-03-15T15:50:36;1012.10;;;31.31;56.42
37170;BME280;23062;13.952;100.608;2023-03-15T15:55:01;1012.07;;;31.30;56.25
37170;BME280;23062;13.952;100.608;2023-03-15T15:59:27;1012.07;;;31.30;56.02
37170;BME280;23062;13.952;100.608;2023-03-15T16:03:54;1012.04;;;31.29;56.91
37170;BME280;23062;13.952;100.608;2023-03-15T16:08:23;1011.98;;;31.27;57.07
37170;BME280;23062;13.952;100.608;2023-03-15T16:12:49;1012.00;;;31.26;56.73
37170;BME280;23062;13.952;100.608;2023-03-15T16:17:21;1012.00;;;31.27;56.78
37170;BME280;23062;13.952;100.608;2023-03-15T16:21:47;1012.01;;;31.26;56.43
37170;BME280;23062;13.952;100.608;2023-03-15T16:26:16;1012.01;;;31.25;56.35
37170;BME280;23062;13.952;100.608;2023-03-15T16:30:41;1012.01;;;31.25;56.65
37170;BME280;23062;13.952;100.608;2023-03-15T16:35:10;1011.97;;;31.25;56.95
37170;BME280;23062;13.952;100.608;2023-03-15T16:39:43;1011.94;;;31.24;56.55
37170;BME280;23062;13.952;100.608;2023-03-15T16:44:13;1011.97;;;31.23;56.41
37170;BME280;23062;13.952;100.608;2023-03-15T16:48:42;1012.00;;;31.23;56.60
37170;BME280;23062;13.952;100.608;2023-03-15T16:53:08;1011.96;;;31.22;56.46
37170;BME280;23062;13.952;100.608;2023-03-15T16:57:34;1011.88;;;31.22;56.66
37170;BME280;23062;13.952;100.608;2023-03-15T17:01:59;1011.82;;;31.20;56.74
37170;BME280;23062;13.952;100.608;2023-03-15T17:06:27;1011.79;;;31.20;56.55
37170;BME280;23062;13.952;100.608;2023-03-15T17:10:53;1011.80;;;31.20;56.79
37170;BME280;23062;13.952;100.608;2023-03-15T17:15:21;1011.78;;;31.19;56.46
37170;BME280;23062;13.952;100.608;2023-03-15T17:19:48;1011.85;;;31.19;56.31
37170;BME280;23062;13.952;100.608;2023-03-15T17:24:22;1011.88;;;31.19;56.40
37170;BME280;23062;13.952;100.608;2023-03-15T17:28:49;1011.79;;;31.16;56.37
37170;BME280;23062;13.952;100.608;2023-03-15T17:33:18;1011.79;;;31.17;56.32
37170;BME280;23062;13.952;100.608;2023-03-15T17:37:43;1011.74;;;31.16;56.41
37170;BME280;23062;13.952;100.608;2023-03-15T17:42:13;1011.66;;;31.16;56.41
37170;BME280;23062;13.952;100.608;2023-03-15T17:46:40;1011.61;;;31.15;56.17
37170;BME280;23062;13.952;100.608;2023-03-15T17:51:05;1011.62;;;31.14;56.24
37170;BME280;23062;13.952;100.608;2023-03-15T17:55:31;1011.58;;;31.13;56.42
37170;BME280;23062;13.952;100.608;2023-03-15T17:59:59;1011.57;;;31.13;56.42
37170;BME280;23062;13.952;100.608;2023-03-15T18:04:24;1011.45;;;31.12;56.59
37170;BME280;23062;13.952;100.608;2023-03-15T18:08:51;1011.43;;;31.11;56.71
37170;BME280;23062;13.952;100.608;2023-03-15T18:13:18;1011.39;;;31.11;56.76
37170;BME280;23062;13.952;100.608;2023-03-15T18:17:44;1011.34;;;31.10;56.86
37170;BME280;23062;13.952;100.608;2023-03-15T18:22:13;1011.33;;;31.10;56.91
37170;BME280;23062;13.952;100.608;2023-03-15T18:26:39;1011.27;;;31.09;56.97
37170;BME280;23062;13.952;100.608;2023-03-15T18:31:11;1011.20;;;31.07;56.98
37170;BME280;23062;13.952;100.608;2023-03-15T18:35:39;1011.23;;;31.09;57.02
37170;BME280;23062;13.952;100.608;2023-03-15T18:40:05;1011.17;;;31.07;57.12
37170;BME280;23062;13.952;100.608;2023-03-15T18:44:34;1011.12;;;31.06;57.15
37170;BME280;23062;13.952;100.608;2023-03-15T18:48:59;1011.09;;;31.05;57.25
37170;BME280;23062;13.952;100.608;2023-03-15T18:53:24;1011.08;;;31.04;57.33
37170;BME280;23062;13.952;100.608;2023-03-15T18:57:51;1011.07;;;31.04;57.22
37170;BME280;23062;13.952;100.608;2023-03-15T19:02:17;1011.06;;;31.03;57.26
37170;BME280;23062;13.952;100.608;2023-03-15T19:06:42;1011.09;;;31.04;57.29
37170;BME280;23062;13.952;100.608;2023-03-15T19:11:07;1011.09;;;31.02;57.31
37170;BME280;23062;13.952;100.608;2023-03-15T19:15:37;1011.06;;;31.01;57.41
37170;BME280;23062;13.952;100.608;2023-03-15T19:20:02;1011.09;;;31.01;57.40
37170;BME280;23062;13.952;100.608;2023-03-15T19:24:28;1011.05;;;31.02;57.43
37170;BME280;23062;13.952;100.608;2023-03-15T19:28:54;1011.06;;;31.01;57.53
37170;BME280;23062;13.952;100.608;2023-03-15T19:33:21;1010.96;;;30.99;57.54
37170;BME280;23062;13.952;100.608;2023-03-15T19:37:49;1010.95;;;30.98;57.59
37170;BME280;23062;13.952;100.608;2023-03-15T19:42:19;1010.96;;;30.95;58.66
37170;BME280;23062;13.952;100.608;2023-03-15T19:46:44;1010.92;;;30.91;59.36
37170;BME280;23062;13.952;100.608;2023-03-15T19:51:09;1010.96;;;30.88;59.47
37170;BME280;23062;13.952;100.608;2023-03-15T19:55:36;1011.00;;;30.89;59.65
37170;BME280;23062;13.952;100.608;2023-03-15T20:00:09;1010.96;;;30.88;59.71
37170;BME280;23062;13.952;100.608;2023-03-15T20:04:36;1010.96;;;30.88;59.79
37170;BME280;23062;13.952;100.608;2023-03-15T20:09:01;1010.99;;;30.82;59.95
37170;BME280;23062;13.952;100.608;2023-03-15T20:13:36;1010.95;;;30.70;60.50
37170;BME280;23062;13.952;100.608;2023-03-15T20:17:57;1010.96;;;30.58;61.07
37170;BME280;23062;13.952;100.608;2023-03-15T20:22:25;1010.95;;;30.56;61.21
37170;BME280;23062;13.952;100.608;2023-03-15T20:26:51;1010.98;;;30.47;61.73
37170;BME280;23062;13.952;100.608;2023-03-15T20:31:18;1011.01;;;30.48;61.70
37170;BME280;23062;13.952;100.608;2023-03-15T20:35:43;1010.94;;;30.62;61.17
37170;BME280;23062;13.952;100.608;2023-03-15T20:40:11;1010.86;;;30.69;60.97
37170;BME280;23062;13.952;100.608;2023-03-15T20:44:39;1010.86;;;30.70;60.77
37170;BME280;23062;13.952;100.608;2023-03-15T20:49:07;1010.91;;;30.71;60.85
37170;BME280;23062;13.952;100.608;2023-03-15T20:53:32;1010.86;;;30.70;60.86
37170;BME280;23062;13.952;100.608;2023-03-15T20:57:58;1010.91;;;30.70;60.70
37170;BME280;23062;13.952;100.608;2023-03-15T21:02:23;1010.89;;;30.70;60.70
37170;BME280;23062;13.952;100.608;2023-03-15T21:06:55;1010.87;;;30.65;61.08
37170;BME280;23062;13.952;100.608;2023-03-15T21:11:28;1010.91;;;30.65;61.15
37170;BME280;23062;13.952;100.608;2023-03-15T21:15:53;1010.89;;;30.65;61.07
37170;BME280;23062;13.952;100.608;2023-03-15T21:20:18;1010.94;;;30.64;61.10
37170;BME280;23062;13.952;100.608;2023-03-15T21:24:44;1010.89;;;30.29;62.24
37170;BME280;23062;13.952;100.608;2023-03-15T21:29:09;1010.93;;;30.16;62.99
37170;BME280;23062;13.952;100.608;2023-03-15T21:33:34;1010.91;;;30.16;63.14
37170;BME280;23062;13.952;100.608;2023-03-15T21:38:02;1010.95;;;30.15;63.30
37170;BME280;23062;13.952;100.608;2023-03-15T21:42:27;1010.96;;;30.10;63.56
37170;BME280;23062;13.952;100.608;2023-03-15T21:46:53;1011.01;;;30.07;63.75
37170;BME280;23062;13.952;100.608;2023-03-15T21:51:20;1011.02;;;30.06;63.78
37170;BME280;23062;13.952;100.608;2023-03-15T21:55:48;1011.14;;;30.08;63.83
37170;BME280;23062;13.952;100.608;2023-03-15T22:00:14;1011.21;;;30.01;64.15
37170;BME280;23062;13.952;100.608;2023-03-15T22:04:43;1011.31;;;29.94;65.48
37170;BME280;23062;13.952;100.608;2023-03-15T22:09:08;1011.36;;;29.93;64.96
37170;BME280;23062;13.952;100.608;2023-03-15T22:13:34;1011.33;;;29.86;65.19
37170;BME280;23062;13.952;100.608;2023-03-15T22:17:59;1011.28;;;29.79;65.52
37170;BME280;23062;13.952;100.608;2023-03-15T22:22:26;1011.29;;;29.76;65.69
37170;BME280;23062;13.952;100.608;2023-03-15T22:26:50;1011.33;;;29.80;65.50
37170;BME280;23062;13.952;100.608;2023-03-15T22:31:15;1011.34;;;29.88;65.42
37170;BME280;23062;13.952;100.608;2023-03-15T22:35:39;1011.37;;;29.84;65.70
37170;BME280;23062;13.952;100.608;2023-03-15T22:40:13;1011.41;;;29.83;65.90
37170;BME280;23062;13.952;100.608;2023-03-15T22:44:38;1011.51;;;29.79;66.14
37170;BME280;23062;13.952;100.608;2023-03-15T22:49:04;1011.54;;;29.88;65.81
37170;BME280;23062;13.952;100.608;2023-03-15T22:53:35;1011.59;;;30.09;65.24
37170;BME280;23062;13.952;100.608;2023-03-15T22:58:00;1011.56;;;30.21;64.80
37170;BME280;23062;13.952;100.608;2023-03-15T23:02:28;1011.58;;;30.26;64.63
37170;BME280;23062;13.952;100.608;2023-03-15T23:06:54;1011.63;;;30.28;64.57
37170;BME280;23062;13.952;100.608;2023-03-15T23:11:19;1011.74;;;30.30;64.48
37170;BME280;23062;13.952;100.608;2023-03-15T23:15:48;1011.92;;;30.30;64.49
37170;BME280;23062;13.952;100.608;2023-03-15T23:20:15;1011.97;;;30.31;64.47
37170;BME280;23062;13.952;100.608;2023-03-15T23:24:43;1012.12;;;30.32;64.46
37170;BME280;23062;13.952;100.608;2023-03-15T23:29:08;1012.22;;;30.31;64.37
37170;BME280;23062;13.952;100.608;2023-03-15T23:33:34;1012.33;;;30.30;64.41
37170;BME280;23062;13.952;100.608;2023-03-15T23:38:02;1012.41;;;30.31;64.36
37170;BME280;23062;13.952;100.608;2023-03-15T23:42:28;1012.40;;;30.32;64.28
37170;BME280;23062;13.952;100.608;2023-03-15T23:46:54;1012.50;;;30.31;64.22
37170;BME280;23062;13.952;100.608;2023-03-15T23:51:20;1012.57;;;30.31;64.19
37170;BME280;23062;13.952;100.608;2023-03-15T23:55:45;1012.64;;;30.32;64.24
